sensor_id;sensor_type;location;lat;lon;timestamp;pressure;altitude;pressure_sealevel;temperature;humidity
61086;BME280;46967;48.876;2.136;2023-04-27T00:00:09;101529.41;;;40.68;nan
61086;BME280;46967;48.876;2.136;2023-04-27T00:02:36;101529.22;;;40.51;nan
61086;BME280;46967;48.876;2.136;2023-04-27T00:05:02;101525.97;;;40.61;nan
61086;BME280;46967;48.876;2.136;2023-04-27T00:07:28;101520.44;;;40.68;nan
61086;BME280;46967;48.876;2.136;2023-04-27T00:09:53;101528.59;;;40.68;nan
61086;BME280;46967;48.876;2.136;2023-04-27T00:12:18;101520.19;;;40.88;nan
61086;BME280;46967;48.876;2.136;2023-04-27T00:14:44;101533.59;;;41.01;nan
61086;BME280;46967;48.876;2.136;2023-04-27T00:17:09;101522.72;;;40.83;nan
61086;BME280;46967;48.876;2.136;2023-04-27T00:19:35;101523.22;;;40.80;nan
61086;BME280;46967;48.876;2.136;2023-04-27T00:22:00;101520.44;;;40.68;nan
61086;BME280;46967;48.876;2.136;2023-04-27T00:24:25;101510.41;;;40.31;nan
61086;BME280;46967;48.876;2.136;2023-04-27T00:26:51;101514.72;;;40.02;nan
61086;BME280;46967;48.876;2.136;2023-04-27T00:29:16;101511.97;;;39.58;nan
61086;BME280;46967;48.876;2.136;2023-04-27T00:31:42;101510.88;;;39.34;nan
61086;BME280;46967;48.876;2.136;2023-04-27T00:34:07;101510.94;;;39.27;nan
61086;BME280;46967;48.876;2.136;2023-04-27T00:36:33;101498.69;;;39.18;nan
61086;BME280;46967;48.876;2.136;2023-04-27T00:38:59;101500.47;;;39.31;nan
61086;BME280;46967;48.876;2.136;2023-04-27T00:41:24;101496.81;;;39.44;nan
61086;BME280;46967;48.876;2.136;2023-04-27T00:43:49;101493.53;;;39.35;nan
61086;BME280;46967;48.876;2.136;2023-04-27T00:46:15;101504.41;;;39.35;nan
61086;BME280;46967;48.876;2.136;2023-04-27T00:48:41;101504.00;;;39.31;nan
61086;BME280;46967;48.876;2.136;2023-04-27T00:51:07;101496.97;;;39.24;nan
61086;BME280;46967;48.876;2.136;2023-04-27T00:53:32;101496.09;;;39.30;nan
61086;BME280;46967;48.876;2.136;2023-04-27T00:55:58;101494.69;;;39.21;nan
61086;BME280;46967;48.876;2.136;2023-04-27T00:58:24;101503.84;;;39.26;nan
61086;BME280;46967;48.876;2.136;2023-04-27T01:00:50;101494.69;;;39.21;nan
61086;BME280;46967;48.876;2.136;2023-04-27T01:03:16;101498.88;;;39.23;nan
61086;BME280;46967;48.876;2.136;2023-04-27T01:05:41;101490.72;;;39.23;nan
61086;BME280;46967;48.876;2.136;2023-04-27T01:08:07;101491.09;;;39.27;nan
61086;BME280;46967;48.876;2.136;2023-04-27T01:10:33;101493.16;;;39.31;nan
61086;BME280;46967;48.876;2.136;2023-04-27T01:12:59;101495.38;;;39.41;nan
61086;BME280;46967;48.876;2.136;2023-04-27T01:15:24;101497.47;;;39.39;nan
61086;BME280;46967;48.876;2.136;2023-04-27T01:17:56;101496.00;;;39.43;nan
61086;BME280;46967;48.876;2.136;2023-04-27T01:20:22;101496.13;;;39.55;nan
61086;BME280;46967;48.876;2.136;2023-04-27T01:22:47;101499.91;;;39.47;nan
61086;BME280;46967;48.876;2.136;2023-04-27T01:25:12;101492.88;;;39.40;nan
61086;BME280;46967;48.876;2.136;2023-04-27T01:27:38;101506.88;;;39.37;nan
61086;BME280;46967;48.876;2.136;2023-04-27T01:30:03;101501.47;;;39.37;nan
61086;BME280;46967;48.876;2.136;2023-04-27T01:32:29;101496.22;;;39.42;nan
61086;BME280;46967;48.876;2.136;2023-04-27T01:34:54;101498.19;;;39.28;nan
61086;BME280;46967;48.876;2.136;2023-04-27T01:37:20;101492.34;;;39.31;nan
61086;BME280;46967;48.876;2.136;2023-04-27T01:39:45;101485.41;;;39.35;nan
61086;BME280;46967;48.876;2.136;2023-04-27T01:42:10;101484.91;;;39.45;nan
61086;BME280;46967;48.876;2.136;2023-04-27T01:44:36;101478.56;;;39.51;nan
61086;BME280;46967;48.876;2.136;2023-04-27T01:47:01;101478.50;;;39.64;nan
61086;BME280;46967;48.876;2.136;2023-04-27T01:49:26;101473.59;;;39.73;nan
61086;BME280;46967;48.876;2.136;2023-04-27T01:51:52;101469.31;;;39.84;nan
61086;BME280;46967;48.876;2.136;2023-04-27T01:54:17;101467.03;;;39.81;nan
61086;BME280;46967;48.876;2.136;2023-04-27T01:56:42;101471.66;;;39.80;nan
61086;BME280;46967;48.876;2.136;2023-04-27T01:59:08;101475.03;;;39.76;nan
61086;BME280;46967;48.876;2.136;2023-04-27T02:01:33;101475.81;;;39.83;nan
61086;BME280;46967;48.876;2.136;2023-04-27T02:03:58;101481.84;;;39.85;nan
61086;BME280;46967;48.876;2.136;2023-04-27T02:06:24;101479.56;;;40.07;nan
61086;BME280;46967;48.876;2.136;2023-04-27T02:08:49;101474.63;;;40.16;nan
61086;BME280;46967;48.876;2.136;2023-04-27T02:11:14;101464.53;;;40.05;nan
61086;BME280;46967;48.876;2.136;2023-04-27T02:13:40;101465.81;;;40.02;nan
61086;BME280;46967;48.876;2.136;2023-04-27T02:16:05;101467.22;;;39.86;nan
61086;BME280;46967;48.876;2.136;2023-04-27T02:18:31;101472.56;;;39.93;nan
61086;BME280;46967;48.876;2.136;2023-04-27T02:20:57;101463.06;;;39.83;nan
61086;BME280;46967;48.876;2.136;2023-04-27T02:23:23;101469.38;;;39.77;nan
61086;BME280;46967;48.876;2.136;2023-04-27T02:25:48;101473.31;;;39.81;nan
61086;BME280;46967;48.876;2.136;2023-04-27T02:28:13;101484.19;;;39.81;nan
61086;BME280;46967;48.876;2.136;2023-04-27T02:30:39;101477.56;;;39.96;nan
61086;BME280;46967;48.876;2.136;2023-04-27T02:33:04;101480.53;;;39.88;nan
61086;BME280;46967;48.876;2.136;2023-04-27T02:35:29;101478.44;;;39.71;nan
61086;BME280;46967;48.876;2.136;2023-04-27T02:37:57;101475.78;;;39.64;nan
61086;BME280;46967;48.876;2.136;2023-04-27T02:40:22;101480.84;;;39.61;nan
61086;BME280;46967;48.876;2.136;2023-04-27T02:42:48;101484.25;;;39.49;nan
61086;BME280;46967;48.876;2.136;2023-04-27T02:45:13;101480.16;;;39.40;nan
61086;BME280;46967;48.876;2.136;2023-04-27T02:47:38;101481.25;;;39.33;nan
61086;BME280;46967;48.876;2.136;2023-04-27T02:50:04;101482.66;;;39.42;nan
61086;BME280;46967;48.876;2.136;2023-04-27T02:52:29;101487.84;;;39.43;nan
61086;BME280;46967;48.876;2.136;2023-04-27T02:54:55;101488.34;;;39.34;nan
61086;BME280;46967;48.876;2.136;2023-04-27T02:57:21;101490.25;;;39.58;nan
61086;BME280;46967;48.876;2.136;2023-04-27T02:59:46;101489.59;;;39.63;nan
61086;BME280;46967;48.876;2.136;2023-04-27T03:02:12;101489.44;;;39.51;nan
61086;BME280;46967;48.876;2.136;2023-04-27T03:04:37;101491.50;;;39.56;nan
61086;BME280;46967;48.876;2.136;2023-04-27T03:07:03;101489.88;;;39.55;nan
61086;BME280;46967;48.876;2.136;2023-04-27T03:09:28;101489.88;;;39.55;nan
61086;BME280;46967;48.876;2.136;2023-04-27T03:11:53;101489.88;;;39.55;nan
61086;BME280;46967;48.876;2.136;2023-04-27T03:14:19;101489.78;;;39.36;nan
61086;BME280;46967;48.876;2.136;2023-04-27T03:16:45;101495.16;;;39.43;nan
61086;BME280;46967;48.876;2.136;2023-04-27T03:19:10;101489.03;;;39.54;nan
61086;BME280;46967;48.876;2.136;2023-04-27T03:21:36;101494.94;;;39.44;nan
61086;BME280;46967;48.876;2.136;2023-04-27T03:24:01;101494.22;;;39.56;nan
61086;BME280;46967;48.876;2.136;2023-04-27T03:26:27;101496.69;;;39.64;nan
61086;BME280;46967;48.876;2.136;2023-04-27T03:28:52;101488.09;;;39.67;nan
61086;BME280;46967;48.876;2.136;2023-04-27T03:31:17;101486.72;;;39.76;nan
61086;BME280;46967;48.876;2.136;2023-04-27T03:33:43;101498.88;;;39.74;nan
61086;BME280;46967;48.876;2.136;2023-04-27T03:36:08;101496.41;;;39.72;nan
61086;BME280;46967;48.876;2.136;2023-04-27T03:38:35;101488.25;;;39.72;nan
61086;BME280;46967;48.876;2.136;2023-04-27T03:41:01;101487.63;;;39.70;nan
61086;BME280;46967;48.876;2.136;2023-04-27T03:43:26;101482.66;;;39.67;nan
61086;BME280;46967;48.876;2.136;2023-04-27T03:45:52;101484.31;;;39.68;nan
61086;BME280;46967;48.876;2.136;2023-04-27T03:48:18;101486.06;;;39.62;nan
61086;BME280;46967;48.876;2.136;2023-04-27T03:50:44;101486.88;;;39.63;nan
61086;BME280;46967;48.876;2.136;2023-04-27T03:53:10;101490.56;;;39.68;nan
61086;BME280;46967;48.876;2.136;2023-04-27T03:55:43;101477.97;;;39.49;nan
61086;BME280;46967;48.876;2.136;2023-04-27T03:58:09;101485.50;;;39.54;nan
61086;BME280;46967;48.876;2.136;2023-04-27T04:00:35;101487.56;;;39.52;nan
61086;BME280;46967;48.876;2.136;2023-04-27T04:03:01;101485.50;;;39.54;nan
61086;BME280;46967;48.876;2.136;2023-04-27T04:05:27;101493.41;;;39.55;nan
61086;BME280;46967;48.876;2.136;2023-04-27T04:07:54;101485.31;;;39.48;nan
61086;BME280;46967;48.876;2.136;2023-04-27T04:10:20;101477.81;;;39.44;nan
61086;BME280;46967;48.876;2.136;2023-04-27T04:12:45;101476.81;;;39.38;nan
61086;BME280;46967;48.876;2.136;2023-04-27T04:15:10;101475.44;;;39.29;nan
61086;BME280;46967;48.876;2.136;2023-04-27T04:17:36;101472.59;;;39.17;nan
61086;BME280;46967;48.876;2.136;2023-04-27T04:20:01;101477.44;;;39.15;nan
61086;BME280;46967;48.876;2.136;2023-04-27T04:22:31;101486.00;;;39.12;nan
61086;BME280;46967;48.876;2.136;2023-04-27T04:24:56;101491.31;;;39.25;nan
61086;BME280;46967;48.876;2.136;2023-04-27T04:27:21;101492.56;;;39.29;nan
61086;BME280;46967;48.876;2.136;2023-04-27T04:29:47;101485.84;;;39.32;nan
61086;BME280;46967;48.876;2.136;2023-04-27T04:32:12;101479.38;;;39.33;nan
61086;BME280;46967;48.876;2.136;2023-04-27T04:34:41;101477.88;;;39.12;nan
61086;BME280;46967;48.876;2.136;2023-04-27T04:37:07;101470.19;;;39.02;nan
61086;BME280;46967;48.876;2.136;2023-04-27T04:39:32;101475.63;;;39.02;nan
61086;BME280;46967;48.876;2.136;2023-04-27T04:41:58;101473.13;;;39.01;nan
61086;BME280;46967;48.876;2.136;2023-04-27T04:44:23;101473.50;;;39.11;nan
61086;BME280;46967;48.876;2.136;2023-04-27T04:46:49;101472.47;;;39.05;nan
61086;BME280;46967;48.876;2.136;2023-04-27T04:49:15;101478.13;;;39.04;nan
61086;BME280;46967;48.876;2.136;2023-04-27T04:51:41;101477.50;;;39.08;nan
61086;BME280;46967;48.876;2.136;2023-04-27T04:54:07;101474.34;;;39.11;nan
61086;BME280;46967;48.876;2.136;2023-04-27T04:56:32;101483.03;;;39.20;nan
61086;BME280;46967;48.876;2.136;2023-04-27T04:58:58;101484.19;;;39.31;nan
61086;BME280;46967;48.876;2.136;2023-04-27T05:01:23;101488.00;;;39.23;nan
61086;BME280;46967;48.876;2.136;2023-04-27T05:03:48;101478.38;;;39.27;nan
61086;BME280;46967;48.876;2.136;2023-04-27T05:06:13;101484.50;;;39.41;nan
61086;BME280;46967;48.876;2.136;2023-04-27T05:08:39;101487.38;;;39.53;nan
61086;BME280;46967;48.876;2.136;2023-04-27T05:11:04;101486.72;;;39.51;nan
61086;BME280;46967;48.876;2.136;2023-04-27T05:13:30;101489.03;;;39.54;nan
61086;BME280;46967;48.876;2.136;2023-04-27T05:15:55;101488.53;;;39.64;nan
61086;BME280;46967;48.876;2.136;2023-04-27T05:18:20;101488.78;;;39.81;nan
61086;BME280;46967;48.876;2.136;2023-04-27T05:20:46;101484.22;;;40.00;nan
61086;BME280;46967;48.876;2.136;2023-04-27T05:23:11;101484.13;;;40.07;nan
61086;BME280;46967;48.876;2.136;2023-04-27T05:25:36;101479.41;;;40.02;nan
61086;BME280;46967;48.876;2.136;2023-04-27T05:28:07;101480.75;;;40.11;nan
61086;BME280;46967;48.876;2.136;2023-04-27T05:30:33;101480.91;;;40.16;nan
61086;BME280;46967;48.876;2.136;2023-04-27T05:32:59;101478.88;;;40.12;nan
61086;BME280;46967;48.876;2.136;2023-04-27T05:35:24;101474.19;;;40.00;nan
61086;BME280;46967;48.876;2.136;2023-04-27T05:37:49;101477.38;;;39.91;nan
61086;BME280;46967;48.876;2.136;2023-04-27T05:40:15;101480.09;;;39.97;nan
61086;BME280;46967;48.876;2.136;2023-04-27T05:42:40;101474.53;;;39.85;nan
61086;BME280;46967;48.876;2.136;2023-04-27T05:45:06;101465.56;;;39.85;nan
61086;BME280;46967;48.876;2.136;2023-04-27T05:47:31;101469.53;;;39.82;nan
61086;BME280;46967;48.876;2.136;2023-04-27T05:49:57;101467.97;;;39.93;nan
61086;BME280;46967;48.876;2.136;2023-04-27T05:52:22;101469.41;;;40.14;nan
61086;BME280;46967;48.876;2.136;2023-04-27T05:54:53;101474.78;;;40.21;nan
61086;BME280;46967;48.876;2.136;2023-04-27T05:57:19;101480.44;;;40.01;nan
61086;BME280;46967;48.876;2.136;2023-04-27T05:59:44;101477.25;;;39.85;nan
61086;BME280;46967;48.876;2.136;2023-04-27T06:02:09;101476.56;;;39.90;nan
61086;BME280;46967;48.876;2.136;2023-04-27T06:04:35;101481.91;;;40.03;nan
61086;BME280;46967;48.876;2.136;2023-04-27T06:07:11;101484.53;;;40.10;nan
61086;BME280;46967;48.876;2.136;2023-04-27T06:09:40;101483.22;;;40.13;nan
61086;BME280;46967;48.876;2.136;2023-04-27T06:12:07;101475.31;;;40.11;nan
61086;BME280;46967;48.876;2.136;2023-04-27T06:14:33;101470.03;;;40.16;nan
61086;BME280;46967;48.876;2.136;2023-04-27T06:16:59;101475.91;;;40.32;nan
61086;BME280;46967;48.876;2.136;2023-04-27T06:19:24;101475.19;;;40.43;nan
61086;BME280;46967;48.876;2.136;2023-04-27T06:21:52;101465.38;;;40.54;nan
61086;BME280;46967;48.876;2.136;2023-04-27T06:24:17;101471.00;;;40.59;nan
61086;BME280;46967;48.876;2.136;2023-04-27T06:26:42;101470.19;;;40.70;nan
61086;BME280;46967;48.876;2.136;2023-04-27T06:29:08;101472.47;;;40.73;nan
61086;BME280;46967;48.876;2.136;2023-04-27T06:31:33;101471.22;;;40.88;nan
61086;BME280;46967;48.876;2.136;2023-04-27T06:33:59;101479.75;;;41.03;nan
61086;BME280;46967;48.876;2.136;2023-04-27T06:36:25;101483.56;;;41.02;nan
61086;BME280;46967;48.876;2.136;2023-04-27T06:38:53;101481.78;;;41.08;nan
61086;BME280;46967;48.876;2.136;2023-04-27T06:41:23;101486.38;;;40.96;nan
61086;BME280;46967;48.876;2.136;2023-04-27T06:43:49;101483.97;;;41.18;nan
61086;BME280;46967;48.876;2.136;2023-04-27T06:46:14;101482.88;;;41.19;nan
61086;BME280;46967;48.876;2.136;2023-04-27T06:48:39;101492.38;;;41.28;nan
61086;BME280;46967;48.876;2.136;2023-04-27T06:51:05;101480.44;;;41.29;nan
61086;BME280;46967;48.876;2.136;2023-04-27T06:53:30;101486.47;;;41.43;nan
61086;BME280;46967;48.876;2.136;2023-04-27T06:55:56;101487.66;;;41.59;nan
61086;BME280;46967;48.876;2.136;2023-04-27T06:58:21;101488.38;;;41.78;nan
61086;BME280;46967;48.876;2.136;2023-04-27T07:00:47;101481.38;;;41.58;nan
61086;BME280;46967;48.876;2.136;2023-04-27T07:03:12;101481.63;;;41.33;nan
61086;BME280;46967;48.876;2.136;2023-04-27T07:05:38;101474.19;;;40.86;nan
61086;BME280;46967;48.876;2.136;2023-04-27T07:08:04;101477.03;;;40.91;nan
61086;BME280;46967;48.876;2.136;2023-04-27T07:10:29;101472.50;;;40.85;nan
61086;BME280;46967;48.876;2.136;2023-04-27T07:12:55;101472.78;;;40.96;nan
61086;BME280;46967;48.876;2.136;2023-04-27T07:15:21;101473.31;;;40.55;nan
61086;BME280;46967;48.876;2.136;2023-04-27T07:17:46;101463.50;;;40.36;nan
61086;BME280;46967;48.876;2.136;2023-04-27T07:20:12;101472.66;;;40.23;nan
61086;BME280;46967;48.876;2.136;2023-04-27T07:22:38;101466.81;;;40.38;nan
61086;BME280;46967;48.876;2.136;2023-04-27T07:25:04;101470.78;;;40.24;nan
61086;BME280;46967;48.876;2.136;2023-04-27T07:27:30;101473.88;;;40.09;nan
61086;BME280;46967;48.876;2.136;2023-04-27T07:29:56;101476.28;;;40.35;nan
61086;BME280;46967;48.876;2.136;2023-04-27T07:32:21;101474.03;;;40.32;nan
61086;BME280;46967;48.876;2.136;2023-04-27T07:34:46;101469.03;;;40.48;nan
61086;BME280;46967;48.876;2.136;2023-04-27T07:37:12;101471.94;;;40.65;nan
61086;BME280;46967;48.876;2.136;2023-04-27T07:39:38;101476.34;;;40.78;nan
61086;BME280;46967;48.876;2.136;2023-04-27T07:42:03;101473.03;;;41.06;nan
61086;BME280;46967;48.876;2.136;2023-04-27T07:44:29;101456.78;;;40.87;nan
61086;BME280;46967;48.876;2.136;2023-04-27T07:46:54;101465.13;;;40.74;nan
61086;BME280;46967;48.876;2.136;2023-04-27T07:49:22;101466.81;;;40.38;nan
61086;BME280;46967;48.876;2.136;2023-04-27T07:51:49;101458.50;;;39.59;nan
61086;BME280;46967;48.876;2.136;2023-04-27T07:54:14;101460.38;;;39.33;nan
61086;BME280;46967;48.876;2.136;2023-04-27T07:56:41;101464.66;;;39.91;nan
61086;BME280;46967;48.876;2.136;2023-04-27T07:59:07;101469.88;;;40.11;nan
61086;BME280;46967;48.876;2.136;2023-04-27T08:01:32;101464.81;;;40.52;nan
61086;BME280;46967;48.876;2.136;2023-04-27T08:03:57;101468.53;;;40.69;nan
61086;BME280;46967;48.876;2.136;2023-04-27T08:06:23;101469.19;;;40.53;nan
61086;BME280;46967;48.876;2.136;2023-04-27T08:08:48;101470.78;;;40.72;nan
61086;BME280;46967;48.876;2.136;2023-04-27T08:11:13;101469.22;;;40.65;nan
61086;BME280;46967;48.876;2.136;2023-04-27T08:13:39;101478.34;;;40.70;nan
61086;BME280;46967;48.876;2.136;2023-04-27T08:16:05;101465.44;;;40.66;nan
61086;BME280;46967;48.876;2.136;2023-04-27T08:18:31;101464.72;;;40.40;nan
61086;BME280;46967;48.876;2.136;2023-04-27T08:20:56;101459.53;;;40.99;nan
61086;BME280;46967;48.876;2.136;2023-04-27T08:23:21;101454.56;;;41.08;nan
61086;BME280;46967;48.876;2.136;2023-04-27T08:25:47;101448.16;;;40.90;nan
61086;BME280;46967;48.876;2.136;2023-04-27T08:28:13;101447.25;;;41.08;nan
61086;BME280;46967;48.876;2.136;2023-04-27T08:30:41;101453.88;;;41.01;nan
61086;BME280;46967;48.876;2.136;2023-04-27T08:33:07;101438.91;;;41.45;nan
61086;BME280;46967;48.876;2.136;2023-04-27T08:35:32;101455.97;;;41.53;nan
61086;BME280;46967;48.876;2.136;2023-04-27T08:37:58;101447.41;;;41.61;nan
61086;BME280;46967;48.876;2.136;2023-04-27T08:40:23;101448.53;;;42.24;nan
61086;BME280;46967;48.876;2.136;2023-04-27T08:42:57;101447.41;;;42.37;nan
61086;BME280;46967;48.876;2.136;2023-04-27T08:45:23;101448.75;;;42.11;nan
61086;BME280;46967;48.876;2.136;2023-04-27T08:47:49;101439.91;;;42.04;nan
61086;BME280;46967;48.876;2.136;2023-04-27T08:50:15;101440.16;;;41.90;nan
61086;BME280;46967;48.876;2.136;2023-04-27T08:52:47;101436.59;;;42.42;nan
61086;BME280;46967;48.876;2.136;2023-04-27T08:55:13;101438.69;;;42.52;nan
61086;BME280;46967;48.876;2.136;2023-04-27T08:57:38;101430.75;;;42.22;nan
61086;BME280;46967;48.876;2.136;2023-04-27T09:00:05;101439.66;;;42.46;nan
61086;BME280;46967;48.876;2.136;2023-04-27T09:02:43;101435.00;;;42.58;nan
61086;BME280;46967;48.876;2.136;2023-04-27T09:05:14;101433.19;;;42.35;nan
61086;BME280;46967;48.876;2.136;2023-04-27T09:07:40;101435.66;;;42.36;nan
61086;BME280;46967;48.876;2.136;2023-04-27T09:10:06;101436.03;;;42.40;nan
61086;BME280;46967;48.876;2.136;2023-04-27T09:12:32;101437.44;;;42.02;nan
61086;BME280;46967;48.876;2.136;2023-04-27T09:17:27;101440.47;;;42.17;nan
61086;BME280;46967;48.876;2.136;2023-04-27T09:20:12;101439.47;;;42.64;nan
61086;BME280;46967;48.876;2.136;2023-04-27T09:25:08;101439.44;;;42.07;nan
61086;BME280;46967;48.876;2.136;2023-04-27T09:27:35;101445.34;;;42.56;nan
61086;BME280;46967;48.876;2.136;2023-04-27T09:30:11;101441.31;;;42.76;nan
61086;BME280;46967;48.876;2.136;2023-04-27T09:32:37;101437.50;;;42.60;nan
61086;BME280;46967;48.876;2.136;2023-04-27T09:35:03;101436.78;;;42.52;nan
61086;BME280;46967;48.876;2.136;2023-04-27T09:37:31;101429.78;;;43.02;nan
61086;BME280;46967;48.876;2.136;2023-04-27T09:39:57;101430.50;;;43.49;nan
61086;BME280;46967;48.876;2.136;2023-04-27T09:42:22;101421.50;;;43.14;nan
61086;BME280;46967;48.876;2.136;2023-04-27T09:44:49;101427.25;;;43.35;nan
61086;BME280;46967;48.876;2.136;2023-04-27T09:47:17;101424.47;;;43.30;nan
61086;BME280;46967;48.876;2.136;2023-04-27T09:49:42;101426.88;;;43.26;nan
61086;BME280;46967;48.876;2.136;2023-04-27T09:52:09;101430.03;;;44.18;nan
61086;BME280;46967;48.876;2.136;2023-04-27T09:54:35;101428.53;;;43.66;nan
61086;BME280;46967;48.876;2.136;2023-04-27T09:57:31;101437.47;;;43.39;nan
61086;BME280;46967;48.876;2.136;2023-04-27T10:02:57;101433.22;;;44.10;nan
61086;BME280;46967;48.876;2.136;2023-04-27T10:08:10;101429.47;;;43.94;nan
61086;BME280;46967;48.876;2.136;2023-04-27T10:11:12;101417.94;;;43.70;nan
61086;BME280;46967;48.876;2.136;2023-04-27T10:13:37;101405.56;;;43.62;nan
61086;BME280;46967;48.876;2.136;2023-04-27T10:16:28;101399.31;;;43.45;nan
61086;BME280;46967;48.876;2.136;2023-04-27T10:19:08;101401.63;;;43.19;nan
61086;BME280;46967;48.876;2.136;2023-04-27T10:21:33;101403.00;;;43.77;nan
61086;BME280;46967;48.876;2.136;2023-04-27T10:24:06;101399.22;;;43.78;nan
61086;BME280;46967;48.876;2.136;2023-04-27T10:26:32;101404.25;;;44.63;nan
61086;BME280;46967;48.876;2.136;2023-04-27T10:29:05;101406.38;;;45.21;nan
61086;BME280;46967;48.876;2.136;2023-04-27T10:31:31;101411.09;;;44.61;nan
61086;BME280;46967;48.876;2.136;2023-04-27T10:34:14;101395.16;;;44.90;nan
61086;BME280;46967;48.876;2.136;2023-04-27T10:36:40;101405.38;;;44.62;nan
61086;BME280;46967;48.876;2.136;2023-04-27T10:39:16;101388.59;;;44.86;nan
61086;BME280;46967;48.876;2.136;2023-04-27T10:41:53;101404.38;;;44.79;nan
61086;BME280;46967;48.876;2.136;2023-04-27T10:46:50;101399.94;;;44.40;nan
61086;BME280;46967;48.876;2.136;2023-04-27T10:49:15;101400.69;;;44.08;nan
61086;BME280;46967;48.876;2.136;2023-04-27T10:51:41;101393.22;;;44.26;nan
61086;BME280;46967;48.876;2.136;2023-04-27T10:54:07;101391.56;;;44.52;nan
61086;BME280;46967;48.876;2.136;2023-04-27T10:56:32;101381.06;;;44.71;nan
61086;BME280;46967;48.876;2.136;2023-04-27T10:59:02;101382.50;;;45.11;nan
61086;BME280;46967;48.876;2.136;2023-04-27T11:01:28;101378.22;;;45.36;nan
61086;BME280;46967;48.876;2.136;2023-04-27T11:03:54;101389.50;;;45.98;nan
61086;BME280;46967;48.876;2.136;2023-04-27T11:06:21;101379.44;;;46.34;nan
61086;BME280;46967;48.876;2.136;2023-04-27T11:08:46;101379.94;;;46.16;nan
61086;BME280;46967;48.876;2.136;2023-04-27T11:11:15;101372.34;;;46.59;nan
61086;BME280;46967;48.876;2.136;2023-04-27T11:13:41;101362.19;;;46.64;nan
61086;BME280;46967;48.876;2.136;2023-04-27T11:16:07;101353.88;;;47.11;nan
61086;BME280;46967;48.876;2.136;2023-04-27T11:18:36;101353.88;;;47.21;nan
61086;BME280;46967;48.876;2.136;2023-04-27T11:21:07;101354.78;;;46.60;nan
61086;BME280;46967;48.876;2.136;2023-04-27T11:23:32;101342.34;;;46.11;nan
61086;BME280;46967;48.876;2.136;2023-04-27T11:26:12;101342.63;;;45.99;nan
61086;BME280;46967;48.876;2.136;2023-04-27T11:28:56;101337.41;;;45.98;nan
61086;BME280;46967;48.876;2.136;2023-04-27T11:31:21;101328.50;;;45.54;nan
61086;BME280;46967;48.876;2.136;2023-04-27T11:33:50;101322.06;;;45.33;nan
61086;BME280;46967;48.876;2.136;2023-04-27T11:36:17;101313.03;;;45.28;nan
61086;BME280;46967;48.876;2.136;2023-04-27T11:38:43;101305.63;;;45.28;nan
61086;BME280;46967;48.876;2.136;2023-04-27T11:41:08;101313.50;;;44.12;nan
61086;BME280;46967;48.876;2.136;2023-04-27T11:43:35;101309.09;;;44.65;nan
61086;BME280;46967;48.876;2.136;2023-04-27T11:46:03;101296.31;;;45.24;nan
61086;BME280;46967;48.876;2.136;2023-04-27T11:48:28;101297.84;;;44.62;nan
61086;BME280;46967;48.876;2.136;2023-04-27T11:50:56;101292.84;;;44.96;nan
61086;BME280;46967;48.876;2.136;2023-04-27T11:53:31;101298.50;;;44.42;nan
61086;BME280;46967;48.876;2.136;2023-04-27T11:55:59;101301.47;;;44.73;nan
61086;BME280;46967;48.876;2.136;2023-04-27T11:58:27;101308.00;;;45.04;nan
61086;BME280;46967;48.876;2.136;2023-04-27T12:00:55;101303.81;;;44.96;nan
61086;BME280;46967;48.876;2.136;2023-04-27T12:03:20;101308.63;;;45.21;nan
61086;BME280;46967;48.876;2.136;2023-04-27T12:05:49;101310.19;;;45.02;nan
61086;BME280;46967;48.876;2.136;2023-04-27T12:08:16;101306.94;;;45.15;nan
61086;BME280;46967;48.876;2.136;2023-04-27T12:10:41;101303.41;;;45.20;nan
61086;BME280;46967;48.876;2.136;2023-04-27T12:13:06;101295.09;;;45.57;nan
61086;BME280;46967;48.876;2.136;2023-04-27T12:15:32;101290.03;;;45.29;nan
61086;BME280;46967;48.876;2.136;2023-04-27T12:17:58;101280.22;;;45.38;nan
61086;BME280;46967;48.876;2.136;2023-04-27T12:20:23;101277.06;;;45.72;nan
61086;BME280;46967;48.876;2.136;2023-04-27T12:22:49;101276.47;;;44.59;nan
61086;BME280;46967;48.876;2.136;2023-04-27T12:25:14;101274.25;;;45.51;nan
61086;BME280;46967;48.876;2.136;2023-04-27T12:27:41;101286.84;;;45.52;nan
61086;BME280;46967;48.876;2.136;2023-04-27T12:30:07;101281.50;;;46.09;nan
61086;BME280;46967;48.876;2.136;2023-04-27T12:32:32;101276.03;;;46.04;nan
61086;BME280;46967;48.876;2.136;2023-04-27T12:34:57;101279.78;;;46.90;nan
61086;BME280;46967;48.876;2.136;2023-04-27T12:37:23;101281.03;;;47.39;nan
61086;BME280;46967;48.876;2.136;2023-04-27T12:39:48;101277.78;;;47.22;nan
61086;BME280;46967;48.876;2.136;2023-04-27T12:42:13;101268.97;;;47.35;nan
61086;BME280;46967;48.876;2.136;2023-04-27T12:44:39;101266.13;;;46.80;nan
61086;BME280;46967;48.876;2.136;2023-04-27T12:47:05;101262.84;;;47.48;nan
61086;BME280;46967;48.876;2.136;2023-04-27T12:49:30;101256.75;;;46.96;nan
61086;BME280;46967;48.876;2.136;2023-04-27T12:51:56;101255.97;;;47.46;nan
61086;BME280;46967;48.876;2.136;2023-04-27T12:54:22;101255.47;;;48.23;nan
61086;BME280;46967;48.876;2.136;2023-04-27T12:56:47;101243.22;;;48.10;nan
61086;BME280;46967;48.876;2.136;2023-04-27T12:59:12;101241.03;;;48.41;nan
61086;BME280;46967;48.876;2.136;2023-04-27T13:01:38;101254.28;;;47.95;nan
61086;BME280;46967;48.876;2.136;2023-04-27T13:04:05;101252.56;;;48.09;nan
61086;BME280;46967;48.876;2.136;2023-04-27T13:06:31;101252.13;;;48.26;nan
61086;BME280;46967;48.876;2.136;2023-04-27T13:08:57;101260.22;;;48.12;nan
61086;BME280;46967;48.876;2.136;2023-04-27T13:11:23;101257.09;;;47.45;nan
61086;BME280;46967;48.876;2.136;2023-04-27T13:13:49;101257.63;;;47.47;nan
61086;BME280;46967;48.876;2.136;2023-04-27T13:16:14;101264.31;;;47.30;nan
61086;BME280;46967;48.876;2.136;2023-04-27T13:18:40;101271.22;;;47.17;nan